• Join FlightAware (Why Join?)
  • Login
  • US Flag 
07:51PM EDT


 

Airport Tracker/Info


-or-


 

Live Flight TrackerFlight Track Log ✈ KAP46 ✈ 11-Aug-2013 ✈ KALB - KMSS

Flight Track Log - Related Links

Times and Time Zones

All times are in EDT time to prevent confusion due to time zone crossing. See the KAP46 flight status page for this flight to view local times or setup timezone preferences in your user account.

Time Position Orientation Groundspeed Altitude Reporting Facility
EDT Latitude Longitude Course Direction KTS MPH feet Rate Location/Type
10:29AM 42.7508 -73.7831 69° East 112 129 900  Level Boston Center
10:29AM 42.7619 -73.7439 69° East 128 147 1,700 840 Climbing Boston Center
10:30AM 42.7953 -73.7361 10° North 122 140 2,600 780 Climbing Boston Center
10:32AM 42.8328 -73.7339 North 120 138 3,400 780 Climbing Boston Center
10:33AM 42.8661 -73.7431 349° North 124 143 4,300 840 Climbing Boston Center
10:34AM 42.8972 -73.7581 341° North 123 142 5,200 840 Climbing Boston Center
10:34AM 42.9242 -73.7614 355° North 128 147 5,900 720 Climbing Boston Center
10:35AM 42.9594 -73.7792 340° North 125 144 6,600 600 Climbing Boston Center
10:36AM 42.9967 -73.8000 338° Northwest 149 171 7,200 600 Climbing Boston Center
10:37AM 43.0319 -73.8147 343° North 133 153 7,900 660 Climbing Boston Center
10:39AM 43.0672 -73.8356 337° Northwest 131 151 8,600 360 Climbing Boston Center
10:39AM 43.1022 -73.8506 343° North 153 176 8,600  Level Boston Center
10:40AM 43.1397 -73.8683 341° North 172 198 8,600  Level Boston Center
10:41AM 43.1853 -73.8867 344° North 159 183 8,600  Level Boston Center
10:42AM 43.2203 -73.9103 334° Northwest 153 176 8,600  Level Boston Center
10:43AM 43.2617 -73.9342 337° Northwest 153 176 8,600  Level Boston Center
10:44AM 43.2989 -73.9550 338° Northwest 153 176 8,600  Level Boston Center
10:45AM 43.3447 -73.9731 344° North 153 176 8,600  Level Boston Center
10:46AM 43.3797 -73.9911 339° North 153 176 8,600  Level Boston Center
10:47AM 43.4233 -74.0181 336° Northwest 158 182 8,600  Level Boston Center
10:48AM 43.4647 -74.0364 342° North 158 182 8,600  Level Boston Center
10:49AM 43.5019 -74.0544 341° North 152 175 8,600  Level Boston Center
10:50AM 43.5433 -74.0786 337° Northwest 152 175 8,600  Level Boston Center
10:51AM 43.5825 -74.1025 336° Northwest 152 175 8,600  Level Boston Center
10:52AM 43.6239 -74.1208 342° North 147 169 8,600  Level Boston Center
10:53AM 43.6631 -74.1450 336° Northwest 147 169 8,600  Level Boston Center
10:54AM 43.7025 -74.1661 339° North 147 169 8,600  Level Boston Center
10:55AM 43.7436 -74.1903 337° Northwest 152 175 8,600  Level Boston Center
10:56AM 43.7808 -74.2114 338° Northwest 152 175 8,600  Level Boston Center
10:57AM 43.8222 -74.2356 337° Northwest 152 175 8,600  Level Boston Center
10:58AM 43.8614 -74.2569 339° North 152 175 8,600  Level Boston Center
10:59AM 43.9008 -74.2783 339° North 152 175 8,600 -60 Level Boston Center
11:00AM 43.9419 -74.3028 337° Northwest 157 181 8,500 -60 Descending Boston Center
11:01AM 43.9833 -74.3272 337° Northwest 157 181 8,500  Level Boston Center
11:02AM 44.0225 -74.3456 341° North 157 181 8,500  Level Boston Center
11:03AM 44.0639 -74.3700 337° Northwest 157 181 8,500  Level Boston Center
11:04AM 44.1011 -74.3914 338° Northwest 157 181 8,500  Level Boston Center
11:05AM 44.1444 -74.4133 340° North 157 181 8,500  Level Boston Center
11:06AM 44.1775 -74.4317 338° Northwest 157 181 8,500  Level Boston Center
11:07AM 44.2269 -74.4594 338° Northwest 157 181 8,500  Level Boston Center
11:08AM 44.2681 -74.4842 337° Northwest 157 181 8,500  Level Boston Center
11:09AM 44.3072 -74.5086 336° Northwest 157 181 8,600  Climbing Boston Center
11:10AM 44.3467 -74.5275 341° North 157 181 8,600  Level Boston Center
11:11AM 44.3897 -74.5550 335° Northwest 157 181 8,600  Level Boston Center
11:12AM 44.4331 -74.5769 340° North 157 181 8,600  Level Boston Center
11:13AM 44.4744 -74.5989 339° North 157 181 8,600 -120 Level Boston Center
11:14AM 44.5117 -74.6117 346° North 157 181 8,400 -300 Descending Boston Center
11:15AM 44.5592 -74.6339 342° North 157 181 8,100 -360 Descending Boston Center
11:16AM 44.6067 -74.6533 344° North 167 192 7,700 -480 Descending Boston Center
11:17AM 44.6522 -74.6725 343° North 172 198 7,200 -720 Descending Boston Center
11:18AM 44.7042 -74.6861 349° North 172 198 6,300 -960 Descending Boston Center
11:19AM 44.7583 -74.6881 359° North 182 209 5,300 -1,020 Descending Boston Center